首页
METAR-TAF:

METAR-TAF

机场 :

墨尔本, 澳大利亚

墨爾本機場

纬度: 37-40-24S, 经度: 144-50-36E, 海拔: 132米

当前天气观测

该预报发布于16分钟前的13:00 UTC
风速4节,风向西北
温度 19°C
湿度 64%
气压 1016 hPa
能见度10公里或以上
1500米以下无云,无积雨云

METAR: YMML 171300Z 32004KT CAVOK 19/12 Q1016

时间: 00:16 (13:16 UTC)

预报

该预报发布于1小时和46分钟前的11:30 UTC
预报有效从17日的 12点(UTC)到 18日的 18点(UTC)
风速5节,风向多变
能见度10公里或以上
1500米以下无云,无积雨云
从 17日的 1600点(UTC)
风速10节,风向
能见度10公里或以上
1500米以下无云,无积雨云
从 17日的 2000点(UTC)
风速15节,风向,有时为25节阵风
能见度10公里或以上
1500米以下无云,无积雨云
从 18日的 0200点(UTC)
风速12节,风向北转西北
能见度10公里或以上
1500米以下无云,无积雨云
从 18日的 0700点(UTC)
风速12节,风向
能见度10公里或以上
1500米以下无云,无积雨云

TAF: YMML 171130Z 1712/1818 VRB05KT CAVOK FM171600 36010KT CAVOK FM172000 36015G25KT CAVOK FM180200 33012KT CAVOK FM180700 36012KT CAVOK

超过4000个机场的气象观测和天气预报(METAR&TAF报告)。

可查询的气象台以黄色和红色小点在地图上表示。

将鼠标移到小点上方,可查看气象台名称。

然后点击查看天气观测和预报。

如需切换地图:点击带黑十字的绿色按钮放大地图;点击带横线的绿色按钮缩小地图;或者点击绿色箭头查看邻近地区的地图。


METAR-TAF: